Airfield :
LOGIN :

Register | Disclaimer

   EN    FR    IT 

 










Legend :    VFR   Marginal VFR   IFR   Intensive IFR   Very Intensive IFR
Visi :
Ceiling :
>= 8 km
>= 3000ft
5 to 8 km
1000 to 3000 ft
1500m to 5 km
500 to 1000 ft
800 to 1500m
200 to 500 ft
< 800m
< 200 ft
Symbols :   Thunderstorms  Fog  Heavy snow  Heavy precipitations  Wind > 20 kt
SIGMETs :     Misc.  Thunderstorms  Icing  Turbulence  Mountain Waves  Volcanic Ashes







- Airport Elevation : 13 ft
- IATA code : CEQ
- Download approach charts


LFMD - Cannes Mandelieu

CURRENT METAR :
  • 252300Z AUTO VRB02KT 9999 -RA BKN014 OVC021 04/02 Q1008

EXPIRED METARs :
  • 252230Z AUTO VRB01KT 9999 -RA BKN012 OVC020 04/02 Q1007
  • 252200Z AUTO VRB02KT 9999 -RA FEW012/// OVC018/// ///TCU 04/02 Q1007
  • 252130Z AUTO 08006KT 040V120 9999 -RA SCT012/// BKN020/// OVC029/// ///TCU 04/02 Q1007
  • 252100Z AUTO VRB03KT 9000 -RA FEW020/// OVC030/// ///TCU 05/03 Q1007
  • 252030Z AUTO VRB02KT 9999 -RA BKN025 OVC032 06/02 Q1006

TAF TAF LFMD
Valid from the 25 at 15:00 until the 26 at 15:00 UTC


251400Z 2515/2615 VRB03KT 9999 BKN026 BKN033
BECMG 2515/2517 10014KT
TEMPO 2515/2614 3000 RA BKN010 FEW020TCU
BECMG 2522/2524 VRB10G20KT
PROB40
TEMPO 2605/2610 1400 RASN BKN006
BECMG 2613/2615 NSW
ATIS : +33 4 93 48 73 23
No reported NOTAMs for that airfield.
3 SIGMETs reported for the Marseille FIR (LFMM) :
 
Severe turbulence
LFMM SIGMET 5 VALID 260000/260400 LFPW
LFMM MARSEILLE FIR/UIR SEV TURB FCST WI N4500 E00415 - N4500 E00515 - N4230 E00530 - N4230 E00415 - N4500 E00415 SFC/FL050 STNR NC=
Severe turbulence
LFMM SIGMET 4 VALID 252000/260000 LFPW
LFMM MARSEILLE FIR/UIR SEV TURB FCST WI N4345 E00745 - N4315 E00930 - N4145 E00745 - N4300 E00615 - N4345 E00745 SFC/FL080 STNR WKN=
Severe turbulence
LFMM SIGMET 3 VALID 252000/260000 LFPW
LFMM MARSEILLE FIR/UIR SEV TURB FCST WI N4500 E00415 - N4500 E00515 - N4230 E00530 - N4230 E00415 - N4500 E00415 SFC/FL050 STNR NC=



MET'MAP, your aeronautical weather chart ! - Copyright ORBIFLY December 2007 - Disclaimer

ORBIFLY MET'MAP TEAM :

Programming & Development : Alexandra Zaïnal
Concept & Development : Baudouin d'Aumeries
Co-Development & Prog : Marc-Olivier Méhu
Technical & hardware support : Manuel Goepfert

Contact : metmap@orbifly.com




SOURCES & CREDITS :

   NOAA